Time;durP1;ratioP1;P1;durP2;ratioP2;P2;SDS_P1;SDS_P2;PMS_P1;PMS_P2;Temp;Humidity;BMP_temperature;BMP_pressure;BME280_temperature;BME280_humidity;BME280_pressure;Samples;Min_cycle;Max_cycle;Signal;HPM_P1;HPM_P2
2024/01/08 00:00:28;;;;;;;7.20;3.63;;;;;;;;;;5017826;28;20080;-77
2024/01/08 00:02:54;;;;;;;5.43;3.03;;;;;;;;;;5024249;28;20033;-77
2024/01/08 00:05:20;;;;;;;5.65;2.95;;;;;;;;;;5016166;28;20029;-77
2024/01/08 00:07:46;;;;;;;6.20;3.38;;;;;;;;;;5017993;28;20450;-77
2024/01/08 00:10:12;;;;;;;5.40;4.00;;;;;;;;;;5027292;28;20256;-76
2024/01/08 00:12:38;;;;;;;8.43;4.10;;;;;;;;;;5020456;28;20613;-76
2024/01/08 00:15:04;;;;;;;9.18;3.70;;;;;;;;;;5014410;28;20533;-75
2024/01/08 00:17:30;;;;;;;5.57;2.88;;;;;;;;;;5023305;28;20065;-76
2024/01/08 00:19:56;;;;;;;4.78;3.42;;;;;;;;;;5020977;28;20044;-78
2024/01/08 00:22:22;;;;;;;4.63;3.45;;;;;;;;;;5030245;28;20479;-76
2024/01/08 00:24:48;;;;;;;4.90;3.42;;;;;;;;;;5013949;28;20108;-78
2024/01/08 00:27:14;;;;;;;4.63;3.08;;;;;;;;;;5012467;28;20546;-75
2024/01/08 00:29:40;;;;;;;5.80;3.97;;;;;;;;;;5011381;28;20435;-76
2024/01/08 00:32:07;;;;;;;4.53;3.30;;;;;;;;;;5014782;28;20025;-76
2024/01/08 00:34:34;;;;;;;8.80;3.25;;;;;;;;;;5017645;28;20036;-75
2024/01/08 00:37:00;;;;;;;5.15;3.00;;;;;;;;;;5024693;28;20042;-76
2024/01/08 00:39:27;;;;;;;6.10;3.45;;;;;;;;;;5017427;28;20036;-76
2024/01/08 00:41:53;;;;;;;6.57;3.72;;;;;;;;;;5008668;28;20451;-76
2024/01/08 00:44:19;;;;;;;6.85;3.00;;;;;;;;;;5013295;28;20037;-76
2024/01/08 00:46:45;;;;;;;6.10;2.83;;;;;;;;;;5017500;28;20076;-78
2024/01/08 00:49:11;;;;;;;4.72;2.90;;;;;;;;;;5019076;28;20029;-76
2024/01/08 00:51:37;;;;;;;6.28;3.22;;;;;;;;;;5028002;28;20569;-77
2024/01/08 00:54:03;;;;;;;4.35;2.78;;;;;;;;;;5025303;28;20048;-77
2024/01/08 00:56:30;;;;;;;7.47;3.60;;;;;;;;;;5022911;28;20189;-76
2024/01/08 00:58:56;;;;;;;4.70;2.92;;;;;;;;;;5025846;28;20037;-76
2024/01/08 01:01:22;;;;;;;5.88;3.45;;;;;;;;;;5034851;28;20029;-76
2024/01/08 01:03:48;;;;;;;6.57;2.70;;;;;;;;;;5019967;28;20025;-76
2024/01/08 01:06:19;;;;;;;6.47;3.53;;;;;;;;;;5019600;28;20042;-78
2024/01/08 01:08:45;;;;;;;9.57;3.35;;;;;;;;;;5024019;28;20062;-76
2024/01/08 01:11:12;;;;;;;5.70;3.08;;;;;;;;;;5018460;28;20120;-76
2024/01/08 01:13:38;;;;;;;6.20;3.55;;;;;;;;;;5027129;28;20027;-76
2024/01/08 01:16:04;;;;;;;5.25;3.03;;;;;;;;;;5017680;28;20055;-75
2024/01/08 01:18:30;;;;;;;7.47;4.05;;;;;;;;;;5025785;28;20025;-77
2024/01/08 01:20:56;;;;;;;7.88;3.85;;;;;;;;;;5014682;28;20030;-76
2024/01/08 01:23:22;;;;;;;7.55;3.35;;;;;;;;;;5010782;28;20033;-76
2024/01/08 01:25:48;;;;;;;8.55;3.50;;;;;;;;;;5026516;28;20107;-78
2024/01/08 01:28:14;;;;;;;6.60;3.38;;;;;;;;;;5024434;28;20037;-77
2024/01/08 01:30:40;;;;;;;5.13;3.25;;;;;;;;;;5024907;28;20025;-76
2024/01/08 01:33:06;;;;;;;5.38;3.10;;;;;;;;;;5017095;28;20033;-75
2024/01/08 01:35:32;;;;;;;5.90;3.40;;;;;;;;;;5026975;28;20036;-77
2024/01/08 01:37:58;;;;;;;7.65;4.03;;;;;;;;;;5021151;28;20037;-76
2024/01/08 01:40:25;;;;;;;6.20;3.95;;;;;;;;;;5015721;28;20099;-77
2024/01/08 01:42:54;;;;;;;4.63;3.70;;;;;;;;;;5028370;28;20421;-77
2024/01/08 01:45:21;;;;;;;7.00;3.50;;;;;;;;;;5031183;28;20101;-80
2024/01/08 01:47:47;;;;;;;7.70;3.20;;;;;;;;;;5016832;28;20038;-78
2024/01/08 01:50:13;;;;;;;5.45;3.13;;;;;;;;;;5016451;28;20038;-75
2024/01/08 01:52:40;;;;;;;8.65;3.45;;;;;;;;;;5011301;28;20034;-76
2024/01/08 01:55:06;;;;;;;13.93;3.60;;;;;;;;;;5024169;28;20411;-76
2024/01/08 01:57:33;;;;;;;6.70;3.58;;;;;;;;;;5019994;28;20034;-75
2024/01/08 01:59:59;;;;;;;6.38;3.58;;;;;;;;;;5024434;28;20037;-77
2024/01/08 02:02:27;;;;;;;6.65;3.40;;;;;;;;;;5015799;28;20100;-77
2024/01/08 02:04:55;;;;;;;5.30;3.15;;;;;;;;;;5026880;28;20034;-77
2024/01/08 02:07:21;;;;;;;6.85;3.85;;;;;;;;;;5010789;28;20058;-77
2024/01/08 02:09:47;;;;;;;7.72;3.42;;;;;;;;;;5021654;28;20030;-77
2024/01/08 02:12:16;;;;;;;5.93;3.50;;;;;;;;;;5024558;28;20136;-77
2024/01/08 02:14:43;;;;;;;7.30;3.90;;;;;;;;;;5016357;28;20041;-77
2024/01/08 02:17:09;;;;;;;11.65;4.10;;;;;;;;;;5019512;28;20052;-76
2024/01/08 02:19:35;;;;;;;10.88;4.13;;;;;;;;;;5031106;28;20026;-75
2024/01/08 02:22:01;;;;;;;6.03;3.30;;;;;;;;;;5019250;28;20036;-75
2024/01/08 02:24:29;;;;;;;7.22;3.30;;;;;;;;;;5024707;28;20022;-76
2024/01/08 02:26:55;;;;;;;10.75;3.70;;;;;;;;;;5025914;28;20120;-76
2024/01/08 02:29:21;;;;;;;7.35;3.58;;;;;;;;;;5030472;28;20455;-76
2024/01/08 02:31:51;;;;;;;5.55;4.10;;;;;;;;;;5025965;28;20025;-76
2024/01/08 02:34:17;;;;;;;9.82;4.18;;;;;;;;;;5030057;28;20467;-76
2024/01/08 02:36:43;;;;;;;5.55;3.60;;;;;;;;;;5008883;28;20411;-76
2024/01/08 02:39:09;;;;;;;6.20;3.00;;;;;;;;;;5034216;28;20258;-76
2024/01/08 02:41:35;;;;;;;8.20;3.55;;;;;;;;;;5019714;28;20096;-75
2024/01/08 02:44:01;;;;;;;6.07;3.97;;;;;;;;;;5026056;28;20038;-75
2024/01/08 02:46:27;;;;;;;6.63;3.72;;;;;;;;;;5029676;28;20510;-76
2024/01/08 02:48:54;;;;;;;9.18;4.40;;;;;;;;;;5018537;28;20113;-75
2024/01/08 02:51:20;;;;;;;10.77;4.13;;;;;;;;;;5029424;28;20594;-76
2024/01/08 02:53:46;;;;;;;6.03;3.50;;;;;;;;;;5014365;28;20484;-76
2024/01/08 02:56:19;;;;;;;7.90;4.43;;;;;;;;;;5017770;28;20105;-76
2024/01/08 02:58:46;;;;;;;5.35;3.70;;;;;;;;;;5016838;28;20030;-76
2024/01/08 03:01:12;;;;;;;6.97;3.92;;;;;;;;;;5019864;28;20029;-77
2024/01/08 03:03:38;;;;;;;7.25;4.30;;;;;;;;;;5020578;28;20048;-76
2024/01/08 03:06:04;;;;;;;14.45;4.60;;;;;;;;;;5030621;28;20041;-76
2024/01/08 03:08:30;;;;;;;8.52;3.70;;;;;;;;;;5028351;28;20598;-78
2024/01/08 03:10:56;;;;;;;7.32;4.40;;;;;;;;;;5031414;28;20033;-77
2024/01/08 03:13:22;;;;;;;6.32;3.25;;;;;;;;;;5014537;28;20030;-76
2024/01/08 03:15:48;;;;;;;11.02;5.07;;;;;;;;;;5027069;28;20033;-77
2024/01/08 03:18:14;;;;;;;6.43;3.80;;;;;;;;;;5023555;28;20037;-77
2024/01/08 03:20:40;;;;;;;7.03;4.70;;;;;;;;;;5028512;28;20033;-75
2024/01/08 03:23:07;;;;;;;10.98;5.32;;;;;;;;;;5027208;28;20033;-75
2024/01/08 03:25:33;;;;;;;8.40;4.45;;;;;;;;;;5018259;28;20033;-75
2024/01/08 03:27:59;;;;;;;11.07;4.53;;;;;;;;;;5024509;28;20531;-75
2024/01/08 03:30:25;;;;;;;7.60;4.65;;;;;;;;;;5028812;28;20048;-75
2024/01/08 03:32:51;;;;;;;7.07;4.65;;;;;;;;;;5012809;28;20022;-75
2024/01/08 03:35:20;;;;;;;6.75;4.13;;;;;;;;;;5014283;28;20021;-75
2024/01/08 03:37:46;;;;;;;6.55;4.18;;;;;;;;;;5023026;28;20046;-75
2024/01/08 03:40:12;;;;;;;7.68;4.50;;;;;;;;;;5024360;28;20383;-76
2024/01/08 03:42:38;;;;;;;7.60;4.53;;;;;;;;;;5020853;28;20049;-75
2024/01/08 03:45:05;;;;;;;8.18;4.25;;;;;;;;;;5015605;28;20026;-77
2024/01/08 03:47:31;;;;;;;6.80;4.30;;;;;;;;;;5009020;28;20064;-76
2024/01/08 03:49:57;;;;;;;8.30;4.63;;;;;;;;;;5016684;28;20030;-75
2024/01/08 03:52:23;;;;;;;5.75;4.80;;;;;;;;;;5014068;28;20026;-79
2024/01/08 03:54:49;;;;;;;8.00;4.40;;;;;;;;;;5011563;28;20026;-77
2024/01/08 03:57:16;;;;;;;9.05;4.35;;;;;;;;;;5011367;28;20414;-76
2024/01/08 03:59:43;;;;;;;9.10;4.75;;;;;;;;;;5012138;28;20037;-76
2024/01/08 04:02:09;;;;;;;9.30;4.57;;;;;;;;;;5029025;28;20029;-76
2024/01/08 04:04:35;;;;;;;10.93;5.10;;;;;;;;;;5022850;28;20052;-77
2024/01/08 04:07:01;;;;;;;8.75;5.05;;;;;;;;;;5039234;28;20045;-76
2024/01/08 04:09:27;;;;;;;8.02;5.07;;;;;;;;;;5018380;28;20099;-77
2024/01/08 04:11:53;;;;;;;10.38;4.78;;;;;;;;;;5030668;28;20028;-77
2024/01/08 04:14:19;;;;;;;7.30;4.45;;;;;;;;;;5036189;28;20045;-77
2024/01/08 04:16:46;;;;;;;9.43;5.25;;;;;;;;;;5043576;28;20399;-77
2024/01/08 04:19:12;;;;;;;7.97;4.65;;;;;;;;;;5025215;28;20032;-77
2024/01/08 04:21:38;;;;;;;7.63;4.78;;;;;;;;;;5010434;28;20041;-76
2024/01/08 04:24:04;;;;;;;7.28;4.88;;;;;;;;;;5011458;28;20030;-77
2024/01/08 04:26:30;;;;;;;6.97;4.28;;;;;;;;;;5014140;28;20045;-76
2024/01/08 04:28:56;;;;;;;10.63;4.97;;;;;;;;;;5027954;28;20041;-76
2024/01/08 04:31:22;;;;;;;9.25;4.38;;;;;;;;;;5013446;28;20034;-76
2024/01/08 04:33:49;;;;;;;6.68;4.47;;;;;;;;;;5010441;28;20112;-76
2024/01/08 04:36:15;;;;;;;7.80;4.65;;;;;;;;;;5017289;28;20026;-76
2024/01/08 04:38:44;;;;;;;13.20;4.53;;;;;;;;;;5018657;28;21339;-76
2024/01/08 04:41:10;;;;;;;6.60;4.13;;;;;;;;;;5012889;28;20076;-78
2024/01/08 04:43:36;;;;;;;6.43;4.10;;;;;;;;;;5013571;28;20026;-76
2024/01/08 04:46:03;;;;;;;5.32;3.65;;;;;;;;;;5024621;28;20033;-77
2024/01/08 04:48:29;;;;;;;6.70;4.13;;;;;;;;;;5023491;28;20029;-77
2024/01/08 04:50:55;;;;;;;7.68;4.57;;;;;;;;;;5017549;28;20147;-78
2024/01/08 04:53:21;;;;;;;7.20;4.05;;;;;;;;;;5022895;28;20093;-78
2024/01/08 04:55:47;;;;;;;15.73;7.28;;;;;;;;;;5015285;28;20064;-77
2024/01/08 04:58:13;;;;;;;10.18;5.05;;;;;;;;;;5036180;28;20038;-76
2024/01/08 05:00:39;;;;;;;8.73;3.95;;;;;;;;;;5023434;28;20025;-75
2024/01/08 05:03:08;;;;;;;4.70;3.35;;;;;;;;;;5030238;28;20037;-76
2024/01/08 05:05:34;;;;;;;5.88;3.35;;;;;;;;;;5018494;28;20041;-77
2024/01/08 05:08:00;;;;;;;8.00;4.28;;;;;;;;;;5023941;28;20037;-77
2024/01/08 05:10:26;;;;;;;4.50;2.88;;;;;;;;;;5020234;28;20034;-77
2024/01/08 05:12:53;;;;;;;6.10;3.00;;;;;;;;;;5022674;28;20084;-77
2024/01/08 05:15:19;;;;;;;6.93;3.47;;;;;;;;;;5020903;28;20024;-78
2024/01/08 05:17:45;;;;;;;7.15;3.40;;;;;;;;;;5020724;28;20122;-78
2024/01/08 05:20:11;;;;;;;14.55;4.25;;;;;;;;;;5020893;28;20119;-76
2024/01/08 05:22:37;;;;;;;5.85;3.78;;;;;;;;;;5020215;28;20033;-77
2024/01/08 05:25:03;;;;;;;7.03;2.83;;;;;;;;;;5025611;28;20029;-77
2024/01/08 05:27:29;;;;;;;4.80;2.78;;;;;;;;;;5021913;28;20040;-77
2024/01/08 05:29:55;;;;;;;7.40;2.80;;;;;;;;;;5023582;28;20498;-76
2024/01/08 05:32:22;;;;;;;4.00;2.65;;;;;;;;;;5036302;28;20388;-76
2024/01/08 05:34:48;;;;;;;4.80;2.75;;;;;;;;;;5010638;28;20411;-76
2024/01/08 05:37:14;;;;;;;7.90;3.97;;;;;;;;;;5009308;28;20394;-78
2024/01/08 05:39:40;;;;;;;2.63;2.03;;;;;;;;;;5012619;28;20030;-76
2024/01/08 05:42:06;;;;;;;4.35;2.35;;;;;;;;;;5008270;28;20088;-76
2024/01/08 05:44:32;;;;;;;4.07;2.22;;;;;;;;;;5027150;28;20033;-76
2024/01/08 05:46:58;;;;;;;6.38;2.55;;;;;;;;;;5012074;28;20030;-75
2024/01/08 05:49:24;;;;;;;6.80;2.70;;;;;;;;;;5010336;28;20061;-76
2024/01/08 05:51:50;;;;;;;9.13;2.85;;;;;;;;;;5010751;28;20080;-75
2024/01/08 05:54:16;;;;;;;4.28;2.60;;;;;;;;;;5010888;28;20037;-76
2024/01/08 05:56:42;;;;;;;37.75;3.38;;;;;;;;;;5012215;28;20037;-76
2024/01/08 05:59:08;;;;;;;4.60;2.40;;;;;;;;;;5025347;28;20030;-75
2024/01/08 06:01:35;;;;;;;4.18;2.42;;;;;;;;;;5010031;28;20058;-77
2024/01/08 06:04:01;;;;;;;5.10;2.58;;;;;;;;;;5008024;28;20022;-76
2024/01/08 06:06:28;;;;;;;3.75;1.98;;;;;;;;;;5010477;28;20049;-77
2024/01/08 06:08:54;;;;;;;4.07;2.67;;;;;;;;;;5012261;28;20474;-76
2024/01/08 06:11:20;;;;;;;4.60;2.45;;;;;;;;;;5008051;28;20397;-78
2024/01/08 06:13:46;;;;;;;5.30;2.67;;;;;;;;;;5010295;28;20103;-77
2024/01/08 06:16:16;;;;;;;3.33;2.42;;;;;;;;;;5013838;28;20434;-76
2024/01/08 06:18:42;;;;;;;9.77;2.42;;;;;;;;;;5010138;28;20030;-76
2024/01/08 06:21:08;;;;;;;6.85;2.58;;;;;;;;;;5008081;28;20093;-76
2024/01/08 06:23:35;;;;;;;8.50;2.72;;;;;;;;;;5008926;28;20034;-76
2024/01/08 06:26:04;;;;;;;8.00;2.75;;;;;;;;;;5007551;28;20441;-77
2024/01/08 06:28:30;;;;;;;5.10;2.40;;;;;;;;;;5010130;28;20117;-76
2024/01/08 06:30:56;;;;;;;4.78;2.50;;;;;;;;;;5026790;28;20121;-77
2024/01/08 06:33:23;;;;;;;5.32;2.90;;;;;;;;;;5008781;28;20033;-76
2024/01/08 06:35:49;;;;;;;5.28;2.90;;;;;;;;;;5010484;28;20041;-76
2024/01/08 06:38:15;;;;;;;4.72;2.65;;;;;;;;;;5008822;28;20041;-76
2024/01/08 06:40:41;;;;;;;6.35;3.67;;;;;;;;;;5017991;28;20025;-76
2024/01/08 06:43:07;;;;;;;9.25;3.30;;;;;;;;;;5015675;28;20547;-76
2024/01/08 06:45:33;;;;;;;5.78;3.28;;;;;;;;;;5027490;28;20053;-76
2024/01/08 06:47:59;;;;;;;7.30;2.80;;;;;;;;;;5011152;28;20487;-76
2024/01/08 06:50:25;;;;;;;7.97;3.10;;;;;;;;;;5009706;28;20460;-77
2024/01/08 06:52:52;;;;;;;6.53;3.47;;;;;;;;;;5013745;28;20060;-76
2024/01/08 06:55:18;;;;;;;7.40;4.05;;;;;;;;;;5015438;28;20117;-75
2024/01/08 06:57:44;;;;;;;4.82;2.92;;;;;;;;;;5014156;28;20141;-76
2024/01/08 07:00:10;;;;;;;6.80;2.97;;;;;;;;;;5029567;28;20022;-76
2024/01/08 07:02:37;;;;;;;10.10;3.25;;;;;;;;;;5029465;28;20030;-76
2024/01/08 07:05:03;;;;;;;6.75;3.17;;;;;;;;;;5028670;28;20403;-76
2024/01/08 07:07:29;;;;;;;7.70;3.03;;;;;;;;;;5013669;28;20049;-76
2024/01/08 07:09:56;;;;;;;5.10;2.70;;;;;;;;;;5013690;28;20036;-76
2024/01/08 07:12:22;;;;;;;5.88;2.75;;;;;;;;;;5016347;28;20053;-77
2024/01/08 07:14:48;;;;;;;6.10;2.80;;;;;;;;;;5015286;28;20038;-77
2024/01/08 07:17:14;;;;;;;7.00;3.03;;;;;;;;;;5013055;28;20030;-77
2024/01/08 07:19:40;;;;;;;6.38;3.08;;;;;;;;;;5010061;28;20099;-76
2024/01/08 07:22:06;;;;;;;6.68;2.85;;;;;;;;;;5025911;28;20501;-76
2024/01/08 07:24:32;;;;;;;6.88;3.60;;;;;;;;;;5011054;28;20026;-76
2024/01/08 07:26:58;;;;;;;5.75;2.97;;;;;;;;;;5023336;28;20042;-76
2024/01/08 07:29:24;;;;;;;4.53;3.05;;;;;;;;;;5018116;28;20029;-76
2024/01/08 07:31:51;;;;;;;16.00;3.45;;;;;;;;;;5011407;28;20037;-78
2024/01/08 07:34:19;;;;;;;7.65;3.17;;;;;;;;;;5011823;28;20036;-75
2024/01/08 07:36:45;;;;;;;6.57;3.25;;;;;;;;;;5013516;28;20124;-76
2024/01/08 07:39:14;;;;;;;6.07;2.55;;;;;;;;;;5011181;28;20439;-75
2024/01/08 07:41:40;;;;;;;11.70;4.03;;;;;;;;;;5016604;28;20025;-75
2024/01/08 07:44:06;;;;;;;8.75;3.42;;;;;;;;;;5020962;28;20038;-75
2024/01/08 07:46:33;;;;;;;9.52;3.33;;;;;;;;;;5026054;28;20037;-77
2024/01/08 07:48:59;;;;;;;8.82;3.20;;;;;;;;;;5032766;28;20124;-77
2024/01/08 07:51:25;;;;;;;6.82;3.22;;;;;;;;;;5021942;28;20088;-80
2024/01/08 07:53:52;;;;;;;5.97;3.13;;;;;;;;;;5035040;28;20476;-76
2024/01/08 07:56:22;;;;;;;9.27;3.88;;;;;;;;;;5027487;28;20026;-77
2024/01/08 07:58:48;;;;;;;7.60;3.30;;;;;;;;;;5028559;28;20563;-75
2024/01/08 08:01:15;;;;;;;12.48;3.22;;;;;;;;;;5017031;28;20036;-75
2024/01/08 08:03:42;;;;;;;6.93;3.20;;;;;;;;;;5031777;28;20030;-76
2024/01/08 08:06:08;;;;;;;6.28;2.90;;;;;;;;;;5013271;28;20137;-75
2024/01/08 08:08:37;;;;;;;7.57;3.53;;;;;;;;;;5014174;28;20099;-76
2024/01/08 08:11:05;;;;;;;8.02;3.20;;;;;;;;;;5026829;28;20061;-74
2024/01/08 08:13:31;;;;;;;10.40;5.07;;;;;;;;;;5017187;28;20029;-73
2024/01/08 08:15:58;;;;;;;10.82;3.80;;;;;;;;;;5009442;28;20021;-73
2024/01/08 08:18:24;;;;;;;11.90;2.88;;;;;;;;;;5006082;28;20037;-76
2024/01/08 08:20:51;;;;;;;5.90;2.67;;;;;;;;;;5012322;28;20577;-76
2024/01/08 08:23:17;;;;;;;6.47;3.10;;;;;;;;;;5013978;28;20056;-75
2024/01/08 08:25:43;;;;;;;10.00;3.05;;;;;;;;;;5014031;28;20033;-75
2024/01/08 08:28:09;;;;;;;7.07;2.95;;;;;;;;;;5016725;28;20144;-75
2024/01/08 08:30:35;;;;;;;7.63;2.97;;;;;;;;;;5011850;28;20026;-74
2024/01/08 08:33:01;;;;;;;8.27;2.58;;;;;;;;;;5029547;28;20044;-75
2024/01/08 08:35:27;;;;;;;7.13;3.40;;;;;;;;;;5009033;28;20034;-75
2024/01/08 08:37:56;;;;;;;6.15;2.38;;;;;;;;;;5015039;28;20483;-76
2024/01/08 08:40:22;;;;;;;8.05;3.00;;;;;;;;;;5010263;28;20582;-76
2024/01/08 08:42:48;;;;;;;8.75;2.97;;;;;;;;;;5013663;28;20029;-75
2024/01/08 08:45:17;;;;;;;6.72;3.13;;;;;;;;;;5038698;28;20044;-76
2024/01/08 08:47:43;;;;;;;7.93;2.92;;;;;;;;;;5029873;28;20049;-75
2024/01/08 08:50:09;;;;;;;6.50;3.50;;;;;;;;;;5010588;28;20025;-75
2024/01/08 08:52:35;;;;;;;8.80;4.50;;;;;;;;;;5008202;28;20030;-74
2024/01/08 08:55:02;;;;;;;15.60;6.88;;;;;;;;;;5012066;28;20435;-77
2024/01/08 08:57:28;;;;;;;7.55;3.40;;;;;;;;;;5012416;28;20033;-76
2024/01/08 08:59:54;;;;;;;7.25;2.67;;;;;;;;;;5013392;28;20026;-75
2024/01/08 09:02:20;;;;;;;4.97;2.20;;;;;;;;;;5014773;28;20141;-76
2024/01/08 09:04:47;;;;;;;6.82;2.72;;;;;;;;;;5012755;28;20034;-75
2024/01/08 09:07:13;;;;;;;8.13;2.70;;;;;;;;;;5011186;28;20123;-74
2024/01/08 09:09:39;;;;;;;7.05;2.65;;;;;;;;;;5018464;28;20052;-76
2024/01/08 09:12:05;;;;;;;14.27;2.58;;;;;;;;;;5015676;28;20113;-75
2024/01/08 09:14:31;;;;;;;8.38;2.55;;;;;;;;;;5008404;28;20034;-75
2024/01/08 09:16:57;;;;;;;8.15;3.05;;;;;;;;;;5011879;28;20573;-75
2024/01/08 09:19:24;;;;;;;9.90;3.00;;;;;;;;;;5013279;28;20137;-75
2024/01/08 09:21:50;;;;;;;6.28;2.58;;;;;;;;;;5008348;28;20022;-75
2024/01/08 09:24:17;;;;;;;7.63;3.00;;;;;;;;;;5009565;28;20041;-75
2024/01/08 09:26:43;;;;;;;8.70;3.38;;;;;;;;;;5010562;28;20041;-74
2024/01/08 09:29:10;;;;;;;7.22;3.00;;;;;;;;;;5009917;28;20081;-75
2024/01/08 09:31:36;;;;;;;6.80;2.92;;;;;;;;;;5010953;28;20026;-76
2024/01/08 09:34:03;;;;;;;5.28;2.42;;;;;;;;;;5010382;28;20109;-76
2024/01/08 09:36:31;;;;;;;7.95;2.40;;;;;;;;;;5012041;28;20038;-76
2024/01/08 09:39:00;;;;;;;6.72;2.95;;;;;;;;;;5011328;28;20041;-73
2024/01/08 09:41:29;;;;;;;8.63;3.08;;;;;;;;;;5008033;28;20066;-75
2024/01/08 09:43:58;;;;;;;8.25;3.38;;;;;;;;;;5024041;28;20038;-74
2024/01/08 09:46:29;;;;;;;9.85;2.50;;;;;;;;;;5011376;28;20018;-74
2024/01/08 09:48:55;;;;;;;8.23;2.90;;;;;;;;;;5008664;28;20033;-74
2024/01/08 09:51:22;;;;;;;8.15;2.45;;;;;;;;;;5009771;28;20057;-75
2024/01/08 09:53:49;;;;;;;5.47;2.55;;;;;;;;;;5023641;28;20041;-75
2024/01/08 09:56:16;;;;;;;5.60;2.50;;;;;;;;;;5023910;28;20044;-75
2024/01/08 09:58:44;;;;;;;6.60;2.20;;;;;;;;;;5012751;28;20073;-75
2024/01/08 10:01:10;;;;;;;3.17;2.08;;;;;;;;;;5010909;28;20033;-74
2024/01/08 10:03:36;;;;;;;5.00;2.20;;;;;;;;;;5008091;28;20045;-75
2024/01/08 10:06:09;;;;;;;4.30;2.35;;;;;;;;;;5014294;28;20046;-75
2024/01/08 10:08:35;;;;;;;7.15;2.30;;;;;;;;;;5011509;28;20048;-75
2024/01/08 10:11:02;;;;;;;6.60;2.20;;;;;;;;;;5023970;28;20045;-75
2024/01/08 10:13:28;;;;;;;6.38;2.30;;;;;;;;;;5010948;28;20669;-75
2024/01/08 10:15:54;;;;;;;4.65;2.47;;;;;;;;;;5013420;28;20500;-75
2024/01/08 10:18:20;;;;;;;2.80;1.67;;;;;;;;;;5018483;28;20510;-75
2024/01/08 10:20:46;;;;;;;7.07;1.98;;;;;;;;;;5011387;28;20262;-75
2024/01/08 10:23:16;;;;;;;3.13;1.70;;;;;;;;;;5015135;28;20033;-74
2024/01/08 10:25:49;;;;;;;3.15;1.90;;;;;;;;;;5011547;28;20125;-75
2024/01/08 10:28:15;;;;;;;;;;;;;;;;;;5012355;28;20812;-75
2024/01/08 10:30:41;;;;;;;3.03;1.60;;;;;;;;;;5020852;28;19913;-75
2024/01/08 10:33:08;;;;;;;2.88;1.65;;;;;;;;;;5010953;28;20034;-75
2024/01/08 10:35:35;;;;;;;3.15;1.50;;;;;;;;;;5030556;28;20026;-75
2024/01/08 10:38:01;;;;;;;2.80;1.90;;;;;;;;;;5020349;28;20628;-75
2024/01/08 10:40:29;;;;;;;2.47;1.67;;;;;;;;;;5015482;28;20100;-75
2024/01/08 10:42:55;;;;;;;2.60;1.60;;;;;;;;;;5015203;28;20030;-75
2024/01/08 10:45:21;;;;;;;2.13;1.25;;;;;;;;;;5011376;28;20025;-75
2024/01/08 10:48:03;;;;;;;4.10;1.60;;;;;;;;;;5031781;28;20033;-74
2024/01/08 10:50:29;;;;;;;2.13;1.77;;;;;;;;;;5012330;28;20357;-74
2024/01/08 10:52:57;;;;;;;5.10;1.65;;;;;;;;;;5015106;28;20075;-77
2024/01/08 10:55:23;;;;;;;9.57;4.97;;;;;;;;;;5028790;28;20047;-73
2024/01/08 10:57:49;;;;;;;6.53;2.40;;;;;;;;;;5022908;28;20038;-74
2024/01/08 11:00:16;;;;;;;3.75;1.52;;;;;;;;;;5033841;28;20361;-75
2024/01/08 11:02:44;;;;;;;5.03;1.50;;;;;;;;;;5012236;28;20124;-75
2024/01/08 11:05:10;;;;;;;4.00;1.70;;;;;;;;;;5025750;28;20038;-77
2024/01/08 11:07:38;;;;;;;5.43;1.80;;;;;;;;;;5008218;28;20065;-75
2024/01/08 11:10:06;;;;;;;6.95;2.65;;;;;;;;;;5012594;28;20022;-76
2024/01/08 11:12:32;;;;;;;3.40;1.48;;;;;;;;;;5013274;28;20030;-76
2024/01/08 11:15:01;;;;;;;3.55;1.90;;;;;;;;;;5015537;28;20037;-75
2024/01/08 11:17:28;;;;;;;2.92;1.50;;;;;;;;;;5018126;28;20084;-75
2024/01/08 11:19:57;;;;;;;2.67;1.38;;;;;;;;;;5014444;28;20100;-75
2024/01/08 11:22:23;;;;;;;4.00;2.00;;;;;;;;;;5013494;28;20037;-75
2024/01/08 11:24:49;;;;;;;3.17;1.42;;;;;;;;;;5012221;28;20030;-75
2024/01/08 11:27:16;;;;;;;3.42;1.48;;;;;;;;;;5010690;28;20038;-75
2024/01/08 11:29:45;;;;;;;4.07;1.60;;;;;;;;;;5016819;28;20173;-75
2024/01/08 11:32:26;;;;;;;3.42;1.75;;;;;;;;;;5019296;28;20026;-75
2024/01/08 11:35:03;;;;;;;3.47;1.67;;;;;;;;;;5027787;28;20030;-75
2024/01/08 11:37:35;;;;;;;2.88;1.63;;;;;;;;;;5012844;28;20503;-75
2024/01/08 11:40:07;;;;;;;10.15;5.18;;;;;;;;;;5028054;28;20467;-75
2024/01/08 11:42:34;;;;;;;2.92;1.95;;;;;;;;;;5013507;28;20029;-77
2024/01/08 11:45:03;;;;;;;6.25;3.17;;;;;;;;;;5013147;28;20080;-75
2024/01/08 11:47:33;;;;;;;5.28;2.67;;;;;;;;;;5015680;28;20029;-76
2024/01/08 11:49:59;;;;;;;4.18;2.10;;;;;;;;;;5017692;28;20037;-76
2024/01/08 11:52:29;;;;;;;2.42;1.77;;;;;;;;;;5018663;28;20021;-79
2024/01/08 11:54:57;;;;;;;2.88;1.63;;;;;;;;;;5008942;28;20041;-78
2024/01/08 11:57:24;;;;;;;2.33;1.60;;;;;;;;;;5015388;28;20113;-77
2024/01/08 11:59:50;;;;;;;4.32;1.88;;;;;;;;;;5016955;28;20032;-79
2024/01/08 12:02:18;;;;;;;2.53;1.25;;;;;;;;;;5013086;28;20054;-78
2024/01/08 12:04:52;;;;;;;4.80;1.70;;;;;;;;;;5012217;28;20030;-78
2024/01/08 12:07:18;;;;;;;4.20;1.52;;;;;;;;;;5028658;28;20711;-77
2024/01/08 12:09:47;;;;;;;4.38;1.80;;;;;;;;;;5017523;28;20040;-78
2024/01/08 12:12:16;;;;;;;4.85;2.45;;;;;;;;;;5011892;28;20026;-77
2024/01/08 12:14:42;;;;;;;4.30;2.53;;;;;;;;;;5012636;28;20034;-81
2024/01/08 12:17:11;;;;;;;5.10;1.85;;;;;;;;;;5014059;28;20087;-76
2024/01/08 12:19:41;;;;;;;3.15;1.77;;;;;;;;;;5014561;28;20029;-79
2024/01/08 12:22:09;;;;;;;2.55;1.77;;;;;;;;;;5012765;28;20029;-75
2024/01/08 12:24:36;;;;;;;2.78;1.33;;;;;;;;;;5020487;28;20554;-76
2024/01/08 12:27:06;;;;;;;2.90;1.73;;;;;;;;;;5009279;28;20109;-76
2024/01/08 12:29:32;;;;;;;3.42;1.65;;;;;;;;;;5014488;28;20026;-76
2024/01/08 12:32:03;;;;;;;4.53;1.63;;;;;;;;;;5009258;28;20050;-76
2024/01/08 12:34:32;;;;;;;3.90;1.60;;;;;;;;;;5013274;28;20044;-76
2024/01/08 12:36:59;;;;;;;5.47;1.85;;;;;;;;;;5027977;28;20514;-77
2024/01/08 12:39:26;;;;;;;2.47;1.60;;;;;;;;;;5014932;28;20360;-77
2024/01/08 12:41:58;;;;;;;2.78;1.48;;;;;;;;;;5021340;28;20116;-77
2024/01/08 12:44:25;;;;;;;3.00;1.65;;;;;;;;;;5029232;28;20017;-77
2024/01/08 12:46:51;;;;;;;3.05;1.77;;;;;;;;;;5018655;28;20030;-77
2024/01/08 12:49:17;;;;;;;3.15;1.70;;;;;;;;;;5023447;28;20037;-77
2024/01/08 12:51:43;;;;;;;8.85;2.33;;;;;;;;;;5028282;28;20021;-76
2024/01/08 12:54:09;;;;;;;4.45;1.90;;;;;;;;;;5029461;28;20463;-77
2024/01/08 12:56:36;;;;;;;4.65;2.22;;;;;;;;;;5034932;28;20676;-77
2024/01/08 12:59:02;;;;;;;7.38;2.30;;;;;;;;;;5009483;28;20114;-76
2024/01/08 13:01:29;;;;;;;4.72;2.65;;;;;;;;;;5021084;28;20083;-76
2024/01/08 13:03:55;;;;;;;4.40;2.03;;;;;;;;;;5030007;28;20049;-76
2024/01/08 13:06:22;;;;;;;4.97;1.98;;;;;;;;;;5010018;28;20131;-76
2024/01/08 13:08:52;;;;;;;3.47;2.00;;;;;;;;;;5020847;28;20475;-76
2024/01/08 13:11:18;;;;;;;3.80;2.20;;;;;;;;;;5029830;28;20025;-77
2024/01/08 13:13:44;;;;;;;8.13;1.65;;;;;;;;;;5028549;28;20033;-76
2024/01/08 13:16:10;;;;;;;3.80;1.65;;;;;;;;;;5029892;28;20029;-76
2024/01/08 13:18:36;;;;;;;2.97;1.67;;;;;;;;;;5018950;28;20060;-77
2024/01/08 13:21:03;;;;;;;2.58;1.92;;;;;;;;;;5009726;28;20029;-77
2024/01/08 13:23:29;;;;;;;2.95;1.70;;;;;;;;;;5034564;28;20087;-77
2024/01/08 13:25:56;;;;;;;2.90;1.63;;;;;;;;;;5029489;28;20095;-77
2024/01/08 13:28:22;;;;;;;4.57;2.05;;;;;;;;;;5026991;28;20053;-76
2024/01/08 13:30:48;;;;;;;3.97;1.80;;;;;;;;;;5028789;28;20041;-76
2024/01/08 13:33:14;;;;;;;3.60;2.65;;;;;;;;;;5030346;28;20021;-75
2024/01/08 13:35:41;;;;;;;4.60;1.95;;;;;;;;;;5022741;28;20030;-76
2024/01/08 13:38:07;;;;;;;6.35;1.77;;;;;;;;;;5027035;28;20045;-76
2024/01/08 13:40:33;;;;;;;2.97;1.77;;;;;;;;;;5043416;28;20077;-77
2024/01/08 13:43:02;;;;;;;3.03;1.80;;;;;;;;;;5029265;28;20025;-77
2024/01/08 13:45:29;;;;;;;4.00;1.80;;;;;;;;;;5028761;28;20509;-77
2024/01/08 13:47:55;;;;;;;5.40;2.00;;;;;;;;;;5026352;28;20060;-76
2024/01/08 13:50:22;;;;;;;4.80;2.03;;;;;;;;;;5013113;28;20080;-76
2024/01/08 13:52:48;;;;;;;6.93;2.72;;;;;;;;;;5031290;28;20028;-77
2024/01/08 13:55:14;;;;;;;6.28;2.47;;;;;;;;;;5033462;28;20103;-76
2024/01/08 13:57:41;;;;;;;4.78;2.20;;;;;;;;;;5033048;28;20037;-77
2024/01/08 14:00:07;;;;;;;4.38;1.90;;;;;;;;;;5025449;28;20029;-78
2024/01/08 14:02:34;;;;;;;6.85;2.00;;;;;;;;;;5021340;28;20037;-76
2024/01/08 14:05:00;;;;;;;6.22;2.42;;;;;;;;;;5023459;28;20042;-76
2024/01/08 14:07:26;;;;;;;5.22;2.28;;;;;;;;;;5041401;28;20083;-78
2024/01/08 14:09:52;;;;;;;2.70;1.95;;;;;;;;;;5011870;28;20030;-77
2024/01/08 14:12:18;;;;;;;9.30;2.47;;;;;;;;;;5008250;28;20026;-78
2024/01/08 14:14:44;;;;;;;5.65;2.42;;;;;;;;;;5012422;28;20396;-77
2024/01/08 14:17:10;;;;;;;3.05;2.03;;;;;;;;;;5017323;28;20128;-77
2024/01/08 14:19:37;;;;;;;7.40;2.13;;;;;;;;;;5014940;28;20030;-78
2024/01/08 14:22:03;;;;;;;4.20;2.13;;;;;;;;;;5018176;28;20041;-76
2024/01/08 14:24:29;;;;;;;4.97;2.15;;;;;;;;;;5014653;28;20855;-77
2024/01/08 14:26:57;;;;;;;5.97;2.42;;;;;;;;;;5011300;28;20084;-79
2024/01/08 14:29:23;;;;;;;3.50;2.28;;;;;;;;;;5014373;28;20069;-75
2024/01/08 14:31:52;;;;;;;7.97;4.35;;;;;;;;;;5014421;28;20032;-77
2024/01/08 14:34:18;;;;;;;4.32;2.50;;;;;;;;;;5027791;28;20056;-76
2024/01/08 14:36:46;;;;;;;4.88;2.60;;;;;;;;;;5033748;28;20569;-76
2024/01/08 14:39:12;;;;;;;8.77;3.05;;;;;;;;;;5013033;28;20033;-75